createdAt,value
2018-11-04T00:01:05.803Z,16.55
2018-11-04T00:03:36.973Z,16.37
2018-11-04T00:06:08.386Z,17.80
2018-11-04T00:08:39.316Z,16.73
2018-11-04T00:11:10.783Z,16.42
2018-11-04T00:13:41.559Z,16.07
2018-11-04T00:16:12.251Z,15.75
2018-11-04T00:18:42.920Z,16.65
2018-11-04T00:21:13.639Z,16.23
2018-11-04T00:23:44.503Z,15.43
2018-11-04T00:26:15.239Z,16.42
2018-11-04T00:28:45.905Z,16.55
2018-11-04T00:31:16.588Z,17.60
2018-11-04T00:33:47.241Z,15.88
2018-11-04T00:36:17.856Z,16.62
2018-11-04T00:38:48.531Z,15.75
2018-11-04T00:41:19.270Z,15.85
2018-11-04T00:43:49.951Z,15.88
2018-11-04T00:46:20.600Z,16.32
2018-11-04T00:48:51.313Z,16.02
2018-11-04T00:51:22.129Z,15.55
2018-11-04T00:53:52.813Z,15.83
2018-11-04T00:56:23.515Z,15.50
2018-11-04T00:58:54.162Z,15.25
2018-11-04T01:01:24.889Z,15.75
2018-11-04T01:03:55.577Z,15.93
2018-11-04T01:06:26.334Z,15.95
2018-11-04T01:08:57.078Z,15.88
2018-11-04T01:11:27.727Z,15.32
2018-11-04T01:13:58.460Z,14.40
2018-11-04T01:16:29.237Z,15.63
2018-11-04T01:18:59.907Z,16.23
2018-11-04T01:21:30.642Z,14.85
2018-11-04T01:24:06.469Z,15.40
2018-11-04T01:26:37.189Z,15.13
2018-11-04T01:29:07.860Z,15.65
2018-11-04T01:31:38.613Z,15.28
2018-11-04T01:34:09.563Z,14.90
2018-11-04T01:36:40.203Z,14.65
2018-11-04T01:39:11.408Z,14.65
2018-11-04T01:41:42.188Z,15.03
2018-11-04T01:44:12.988Z,14.70
2018-11-04T01:46:43.807Z,15.18
2018-11-04T01:49:14.371Z,15.23
2018-11-04T01:51:45.189Z,13.48
2018-11-04T01:54:15.864Z,14.95
2018-11-04T01:56:46.504Z,14.43
2018-11-04T01:59:17.190Z,14.55
2018-11-04T02:01:47.852Z,15.00
2018-11-04T02:04:18.547Z,15.35
2018-11-04T02:06:49.199Z,14.60
2018-11-04T02:09:19.887Z,15.00
2018-11-04T02:11:50.625Z,14.45
2018-11-04T02:14:21.291Z,14.18
2018-11-04T02:16:52.076Z,13.65
2018-11-04T02:19:22.716Z,14.30
2018-11-04T02:21:53.396Z,14.63
2018-11-04T02:24:24.232Z,14.53
2018-11-04T02:26:54.915Z,14.80
2018-11-04T02:29:25.576Z,14.83
2018-11-04T02:31:56.271Z,14.47
2018-11-04T02:34:26.933Z,15.08
2018-11-04T02:36:57.618Z,14.55
2018-11-04T02:39:28.649Z,14.68
2018-11-04T02:41:59.292Z,13.80
2018-11-04T02:44:30.069Z,14.30
2018-11-04T02:47:00.750Z,14.83
2018-11-04T02:49:32.684Z,14.20
2018-11-04T02:52:08.560Z,13.98
2018-11-04T02:54:39.305Z,14.98
2018-11-04T02:57:10.010Z,14.60
2018-11-04T02:59:40.702Z,14.00
2018-11-04T03:02:11.473Z,14.03
2018-11-04T03:04:42.152Z,13.85
2018-11-04T03:07:12.833Z,14.07
2018-11-04T03:09:43.650Z,14.47
2018-11-04T03:12:14.420Z,14.40
2018-11-04T03:14:45.073Z,14.03
2018-11-04T03:17:15.928Z,14.75
2018-11-04T03:19:46.683Z,13.53
2018-11-04T03:22:17.387Z,14.10
2018-11-04T03:24:48.175Z,14.50
2018-11-04T03:27:18.816Z,14.40
2018-11-04T03:29:49.493Z,14.30
2018-11-04T03:32:21.070Z,13.90
2018-11-04T03:34:51.818Z,14.70
2018-11-04T03:37:22.751Z,14.35
2018-11-04T03:39:53.443Z,15.20
2018-11-04T03:42:24.156Z,14.55
2018-11-04T03:44:54.825Z,14.58
2018-11-04T03:47:25.456Z,15.78
2018-11-04T03:49:56.313Z,15.63
2018-11-04T03:52:26.992Z,16.05
2018-11-04T03:54:57.869Z,16.00
2018-11-04T03:57:28.513Z,16.70
2018-11-04T03:59:59.218Z,15.98
2018-11-04T04:02:29.981Z,16.50
2018-11-04T04:05:06.607Z,16.17
2018-11-04T04:07:37.554Z,15.93
2018-11-04T04:10:09.322Z,16.07
2018-11-04T04:12:40.005Z,16.85
2018-11-04T04:15:11.748Z,16.00
2018-11-04T04:17:42.521Z,16.95
2018-11-04T04:20:13.160Z,16.48
2018-11-04T04:22:43.834Z,17.00
2018-11-04T04:25:14.522Z,17.12
2018-11-04T04:27:45.340Z,16.70
2018-11-04T04:30:16.061Z,16.35
2018-11-04T04:32:46.775Z,17.00
2018-11-04T04:35:17.634Z,17.05
2018-11-04T04:37:48.299Z,17.65
2018-11-04T04:40:20.097Z,16.85
2018-11-04T04:42:50.820Z,17.55
2018-11-04T04:45:21.913Z,16.67
2018-11-04T04:47:52.547Z,17.20
2018-11-04T04:50:23.299Z,16.82
2018-11-04T04:52:53.986Z,16.57
2018-11-04T04:55:24.692Z,17.15
2018-11-04T04:57:55.366Z,17.32
2018-11-04T05:00:26.012Z,17.02
2018-11-04T05:02:56.782Z,16.82
2018-11-04T05:05:27.691Z,17.00
2018-11-04T05:07:58.557Z,15.83
2018-11-04T05:10:29.270Z,15.88
2018-11-04T05:12:59.947Z,17.92
2018-11-04T05:15:30.582Z,16.02
2018-11-04T05:18:04.077Z,16.90
2018-11-04T05:20:34.715Z,16.93
2018-11-04T05:23:05.369Z,17.10
2018-11-04T05:25:36.187Z,16.77
2018-11-04T05:28:07.064Z,16.65
2018-11-04T05:30:38.080Z,16.40
2018-11-04T05:33:08.728Z,17.10
2018-11-04T05:35:39.524Z,16.65
2018-11-04T05:38:10.200Z,17.25
2018-11-04T05:40:40.964Z,16.73
2018-11-04T05:43:11.647Z,16.50
2018-11-04T05:45:42.252Z,16.80
2018-11-04T05:48:12.960Z,16.65
2018-11-04T05:50:43.591Z,16.42
2018-11-04T05:53:14.236Z,17.05
2018-11-04T05:55:44.856Z,16.32
2018-11-04T05:58:15.547Z,17.00
2018-11-04T06:00:46.175Z,16.65
2018-11-04T06:03:17.176Z,16.62
2018-11-04T06:05:47.955Z,16.60
2018-11-04T06:08:18.614Z,16.05
2018-11-04T06:10:49.360Z,16.50
2018-11-04T06:13:20.070Z,17.32
2018-11-04T06:15:50.727Z,17.60
2018-11-04T06:18:21.500Z,15.83
2018-11-04T06:20:52.187Z,16.30
2018-11-04T06:23:22.876Z,16.90
2018-11-04T06:25:53.731Z,16.07
2018-11-04T06:28:24.371Z,16.30
2018-11-04T06:30:55.046Z,15.95
2018-11-04T06:33:25.723Z,15.80
2018-11-04T06:35:56.551Z,16.55
2018-11-04T06:38:27.239Z,15.32
2018-11-04T06:40:57.912Z,16.62
2018-11-04T06:43:28.579Z,15.30
2018-11-04T06:45:59.247Z,15.98
2018-11-04T06:48:29.916Z,15.98
2018-11-04T06:51:00.592Z,17.25
2018-11-04T06:53:35.271Z,15.90
2018-11-04T06:56:08.346Z,16.93
2018-11-04T06:58:39.087Z,16.35
2018-11-04T07:01:09.728Z,16.07
2018-11-04T07:03:45.619Z,16.32
2018-11-04T07:06:16.320Z,16.17
2018-11-04T07:08:47.033Z,14.93
2018-11-04T07:11:17.694Z,15.35
2018-11-04T07:13:48.397Z,15.78
2018-11-04T07:16:19.055Z,15.38
2018-11-04T07:18:49.687Z,16.37
2018-11-04T07:21:20.473Z,15.32
2018-11-04T07:23:51.268Z,15.48
2018-11-04T07:26:21.885Z,15.03
2018-11-04T07:28:52.555Z,15.35
2018-11-04T07:31:23.259Z,15.10
2018-11-04T07:33:53.891Z,16.48
2018-11-04T07:36:24.643Z,15.78
2018-11-04T07:38:55.301Z,15.38
2018-11-04T07:41:25.942Z,15.55
2018-11-04T07:43:56.612Z,15.43
2018-11-04T07:46:27.312Z,15.13
2018-11-04T07:48:57.983Z,14.47
2018-11-04T07:51:28.705Z,15.70
2018-11-04T07:53:59.423Z,15.63
2018-11-04T07:56:30.087Z,14.80
2018-11-04T07:59:00.800Z,14.80
2018-11-04T08:01:34.630Z,15.35
2018-11-04T08:04:05.524Z,15.75
2018-11-04T08:06:36.191Z,13.83
2018-11-04T08:09:08.872Z,14.93
2018-11-04T08:11:39.919Z,15.05
2018-11-04T08:14:10.644Z,15.15
2018-11-04T08:16:41.572Z,16.00
2018-11-04T08:19:12.852Z,14.83
2018-11-04T08:21:43.662Z,15.58
2018-11-04T08:24:14.712Z,14.35
2018-11-04T08:26:45.407Z,14.30
2018-11-04T08:29:16.074Z,14.00
2018-11-04T08:31:46.746Z,15.45
2018-11-04T08:34:17.491Z,14.28
2018-11-04T08:36:48.174Z,15.05
2018-11-04T08:39:18.851Z,14.03
2018-11-04T08:41:49.492Z,14.40
2018-11-04T08:44:20.160Z,14.28
2018-11-04T08:46:50.802Z,13.95
2018-11-04T08:49:21.635Z,14.18
2018-11-04T08:51:52.260Z,14.43
2018-11-04T08:54:23.010Z,14.65
2018-11-04T08:56:53.680Z,13.48
2018-11-04T08:59:24.334Z,13.78
2018-11-04T09:01:54.899Z,13.80
2018-11-04T09:04:26.388Z,13.53
2018-11-04T09:06:56.999Z,14.38
2018-11-04T09:09:27.703Z,13.18
2018-11-04T09:11:58.460Z,14.35
2018-11-04T09:14:29.132Z,13.70
2018-11-04T09:16:59.816Z,13.30
2018-11-04T09:19:30.523Z,13.95
2018-11-04T09:22:03.728Z,14.43
2018-11-04T09:24:34.276Z,14.45
2018-11-04T09:27:06.319Z,13.78
2018-11-04T09:29:37.001Z,13.72
2018-11-04T09:32:07.704Z,12.75
2018-11-04T09:34:38.595Z,13.25
2018-11-04T09:37:09.221Z,14.13
2018-11-04T09:39:39.906Z,13.50
2018-11-04T09:42:10.725Z,13.68
2018-11-04T09:44:41.356Z,13.28
2018-11-04T09:47:12.064Z,13.70
2018-11-04T09:49:42.761Z,13.32
2018-11-04T09:52:13.452Z,12.93
2018-11-04T09:54:44.114Z,13.60
2018-11-04T09:57:14.933Z,13.75
2018-11-04T09:59:46.070Z,12.85
2018-11-04T10:02:16.777Z,13.05
2018-11-04T10:04:47.455Z,13.60
2018-11-04T10:07:18.179Z,12.80
2018-11-04T10:09:48.817Z,12.50
2018-11-04T10:12:19.572Z,13.05
2018-11-04T10:14:50.319Z,12.43
2018-11-04T10:17:21.008Z,12.28
2018-11-04T10:19:51.942Z,11.78
2018-11-04T10:22:22.376Z,12.43
2018-11-04T10:24:53.024Z,12.03
2018-11-04T10:27:23.699Z,12.88
2018-11-04T10:29:54.371Z,12.63
2018-11-04T10:32:25.820Z,12.30
2018-11-04T10:34:56.499Z,12.28
2018-11-04T10:37:27.718Z,12.60
2018-11-04T10:39:58.919Z,13.30
2018-11-04T10:42:30.798Z,12.98
2018-11-04T10:45:05.111Z,13.08
2018-11-04T10:47:36.647Z,13.43
2018-11-04T10:50:10.488Z,12.40
2018-11-04T10:52:42.439Z,13.05
2018-11-04T10:55:13.657Z,12.75
2018-11-04T10:57:45.037Z,12.78
2018-11-04T11:00:21.189Z,13.08
2018-11-04T11:02:52.299Z,13.43
2018-11-04T11:05:23.282Z,12.07
2018-11-04T11:07:54.288Z,12.15
2018-11-04T11:10:26.026Z,11.93
2018-11-04T11:12:56.949Z,12.13
2018-11-04T11:15:28.063Z,11.05
2018-11-04T11:17:59.297Z,11.75
2018-11-04T11:20:30.408Z,11.68
2018-11-04T11:23:01.234Z,10.93
2018-11-04T11:26:19.118Z,12.07
2018-11-04T11:28:49.577Z,10.80
2018-11-04T11:31:21.168Z,11.08
2018-11-04T11:33:52.885Z,11.83
2018-11-04T11:36:25.086Z,11.48
2018-11-04T11:38:56.278Z,11.80
2018-11-04T11:41:27.255Z,10.98
2018-11-04T11:44:16.624Z,10.75
2018-11-04T11:46:50.069Z,11.35
2018-11-04T11:49:20.712Z,10.88
2018-11-04T11:51:51.529Z,10.53
2018-11-04T11:54:22.200Z,9.80
2018-11-04T11:56:52.917Z,9.68
2018-11-04T11:59:23.710Z,10.13
2018-11-04T12:01:54.406Z,10.10
2018-11-04T12:04:25.334Z,10.65
2018-11-04T12:06:56.468Z,10.00
2018-11-04T12:09:27.812Z,10.05
2018-11-04T12:11:58.555Z,9.20
2018-11-04T12:14:29.377Z,10.58
2018-11-04T12:16:59.755Z,9.63
2018-11-04T12:19:30.629Z,10.00
2018-11-04T12:22:06.109Z,10.55
2018-11-04T12:24:42.099Z,10.28
2018-11-04T12:27:18.236Z,10.00
2018-11-04T12:29:54.268Z,10.63
2018-11-04T12:32:30.325Z,9.88
2018-11-04T12:35:09.454Z,10.40
2018-11-04T12:37:45.396Z,10.18
2018-11-04T12:40:21.422Z,10.25
2018-11-04T12:42:57.530Z,9.93
2018-11-04T12:45:33.758Z,11.00
2018-11-04T12:48:09.776Z,9.95
2018-11-04T12:50:41.098Z,9.38
2018-11-04T12:53:14.806Z,10.93
2018-11-04T12:55:46.402Z,9.30
2018-11-04T12:58:16.909Z,10.10
2018-11-04T13:00:47.664Z,9.98
2018-11-04T13:03:18.093Z,9.78
2018-11-04T13:05:50.067Z,9.98
2018-11-04T13:08:20.693Z,9.70
2018-11-04T13:10:51.401Z,9.33
2018-11-04T13:13:21.927Z,9.60
2018-11-04T13:15:52.605Z,9.40
2018-11-04T13:18:23.291Z,9.13
2018-11-04T13:20:54.011Z,9.05
2018-11-04T13:23:30.054Z,10.23
2018-11-04T13:26:08.084Z,8.95
2018-11-04T13:28:39.185Z,9.33
2018-11-04T13:31:09.854Z,9.00
2018-11-04T13:33:40.599Z,9.43
2018-11-04T13:36:11.295Z,8.45
2018-11-04T13:38:41.989Z,8.95
2018-11-04T13:41:12.732Z,9.25
2018-11-04T13:43:43.430Z,8.83
2018-11-04T13:46:14.474Z,9.03
2018-11-04T13:48:45.124Z,8.45
2018-11-04T13:51:15.811Z,8.40
2018-11-04T13:53:46.460Z,8.40
2018-11-04T13:56:17.317Z,7.90
2018-11-04T13:58:48.013Z,7.92
2018-11-04T14:01:18.681Z,7.60
2018-11-04T14:03:49.419Z,7.85
2018-11-04T14:06:20.083Z,8.33
2018-11-04T14:08:50.716Z,7.72
2018-11-04T14:11:21.405Z,7.85
2018-11-04T14:13:52.194Z,7.53
2018-11-04T14:16:22.825Z,7.22
2018-11-04T14:18:53.531Z,7.12
2018-11-04T14:21:24.166Z,7.35
2018-11-04T14:23:55.026Z,7.58
2018-11-04T14:26:25.675Z,7.60
2018-11-04T14:28:56.452Z,7.62
2018-11-04T14:31:27.219Z,7.40
2018-11-04T14:33:57.939Z,8.08
2018-11-04T14:36:34.973Z,8.13
2018-11-04T14:39:08.227Z,7.75
2018-11-04T14:41:38.897Z,7.58
2018-11-04T14:44:09.580Z,7.17
2018-11-04T14:46:40.337Z,7.25
2018-11-04T14:49:11.091Z,7.33
2018-11-04T14:51:41.752Z,6.62
2018-11-04T14:54:18.040Z,7.22
2018-11-04T14:56:48.892Z,6.90
2018-11-04T14:59:19.601Z,6.97
2018-11-04T15:01:50.368Z,7.17
2018-11-04T15:04:21.013Z,7.53
2018-11-04T15:06:51.649Z,7.15
2018-11-04T15:09:22.471Z,7.03
2018-11-04T15:11:53.156Z,7.15
2018-11-04T15:14:23.887Z,7.20
2018-11-04T15:16:54.600Z,7.40
2018-11-04T15:19:25.360Z,7.33
2018-11-04T15:21:56.043Z,6.72
2018-11-04T15:24:27.007Z,6.67
2018-11-04T15:26:57.758Z,6.92
2018-11-04T15:29:28.632Z,6.65
2018-11-04T15:31:59.476Z,6.62
2018-11-04T15:34:31.149Z,7.00
2018-11-04T15:37:06.102Z,6.67
2018-11-04T15:39:36.817Z,6.58
2018-11-04T15:42:07.658Z,6.37
2018-11-04T15:44:38.363Z,6.35
2018-11-04T15:47:09.963Z,6.33
2018-11-04T15:49:40.635Z,6.42
2018-11-04T15:52:11.327Z,6.53
2018-11-04T15:54:41.999Z,6.42
2018-11-04T15:57:13.940Z,5.75
2018-11-04T15:59:45.377Z,6.12
2018-11-04T16:02:16.100Z,5.80
2018-11-04T16:04:46.882Z,6.22
2018-11-04T16:07:17.580Z,6.08
2018-11-04T16:09:48.275Z,5.28
2018-11-04T16:12:19.090Z,6.05
2018-11-04T16:14:49.814Z,6.08
2018-11-04T16:17:20.613Z,6.10
2018-11-04T16:19:51.254Z,5.67
2018-11-04T16:22:22.005Z,6.28
2018-11-04T16:24:52.834Z,6.10
2018-11-04T16:27:23.756Z,6.28
2018-11-04T16:29:54.581Z,5.75
2018-11-04T16:32:47.686Z,5.92
2018-11-04T16:35:21.374Z,4.65
2018-11-04T16:38:07.380Z,5.83
2018-11-04T16:40:40.341Z,6.08
2018-11-04T16:43:21.902Z,6.30
2018-11-04T16:48:54.604Z,5.75
2018-11-04T16:51:37.533Z,6.03
2018-11-04T16:54:16.725Z,6.00
2018-11-04T16:57:11.792Z,5.03
2018-11-04T16:59:45.485Z,5.33
2018-11-04T17:02:16.214Z,5.00
2018-11-04T17:04:47.095Z,5.37
2018-11-04T17:07:17.705Z,4.60
2018-11-04T17:09:48.714Z,5.50
2018-11-04T17:12:19.917Z,5.15
2018-11-04T17:14:50.723Z,5.42
2018-11-04T17:17:21.627Z,5.00
2018-11-04T17:19:52.552Z,5.03
2018-11-04T17:22:23.449Z,4.75
2018-11-04T17:24:54.805Z,5.05
2018-11-04T17:27:25.580Z,4.75
2018-11-04T17:29:56.338Z,5.03
2018-11-04T17:32:27.759Z,4.53
2018-11-04T17:35:00.782Z,5.05
2018-11-04T17:37:34.660Z,4.90
2018-11-04T17:40:11.994Z,4.92
2018-11-04T17:42:42.885Z,5.28
2018-11-04T17:45:15.038Z,5.10
2018-11-04T17:47:47.362Z,5.12
2018-11-04T17:50:19.441Z,5.17
2018-11-04T17:52:50.304Z,4.33
2018-11-04T17:55:21.658Z,4.17
2018-11-04T17:57:53.201Z,4.47
2018-11-04T18:00:24.646Z,5.15
2018-11-04T18:03:00.982Z,4.80
2018-11-04T18:05:35.838Z,5.17
2018-11-04T18:08:09.914Z,5.75
2018-11-04T18:10:42.815Z,4.25
2018-11-04T18:13:13.723Z,4.65
2018-11-04T18:15:44.733Z,4.83
2018-11-04T18:18:16.556Z,4.85
2018-11-04T18:20:47.510Z,4.40
2018-11-04T18:23:18.303Z,5.15
2018-11-04T18:25:49.152Z,4.53
2018-11-04T18:28:20.856Z,4.30
2018-11-04T18:30:53.115Z,4.35
2018-11-04T18:33:24.411Z,4.30
2018-11-04T18:35:56.272Z,4.03
2018-11-04T18:38:33.121Z,4.25
2018-11-04T18:41:10.132Z,4.20
2018-11-04T18:43:41.037Z,4.00
2018-11-04T18:46:12.676Z,4.00
2018-11-04T18:48:43.608Z,4.35
2018-11-04T18:51:14.617Z,3.87
2018-11-04T18:53:45.435Z,3.85
2018-11-04T18:56:17.230Z,3.98
2018-11-04T18:58:48.181Z,3.92
2018-11-04T19:01:19.952Z,4.08
2018-11-04T19:03:50.766Z,3.45
2018-11-04T19:06:21.552Z,4.08
2018-11-04T19:08:53.157Z,3.62
2018-11-04T19:11:24.077Z,3.77
2018-11-04T19:13:54.736Z,4.10
2018-11-04T19:16:25.621Z,3.75
2018-11-04T19:18:56.530Z,3.75
2018-11-04T19:21:27.365Z,3.98
2018-11-04T19:23:58.861Z,4.17
2018-11-04T19:26:29.960Z,3.70
2018-11-04T19:29:00.778Z,3.60
2018-11-04T19:31:42.255Z,4.10
2018-11-04T19:34:13.126Z,3.95
2018-11-04T19:36:44.075Z,3.45
2018-11-04T19:39:14.910Z,4.00
2018-11-04T19:41:45.940Z,3.60
2018-11-04T19:44:16.754Z,3.47
2018-11-04T19:46:47.517Z,3.80
2018-11-04T19:49:20.377Z,4.08
2018-11-04T19:51:53.985Z,3.87
2018-11-04T19:54:24.927Z,3.33
2018-11-04T19:56:56.856Z,3.35
2018-11-04T19:59:27.702Z,2.92
2018-11-04T20:01:58.568Z,3.40
2018-11-04T20:15:49.048Z,3.00
2018-11-04T20:18:24.909Z,3.20
2018-11-04T20:20:55.703Z,3.08
2018-11-04T20:23:26.424Z,3.00
2018-11-04T20:26:03.909Z,3.42
2018-11-04T20:28:34.648Z,3.10
2018-11-04T20:31:09.572Z,3.22
2018-11-04T20:33:40.382Z,3.25
2018-11-04T20:36:11.249Z,3.00
2018-11-04T20:38:47.119Z,3.22
2018-11-04T20:41:22.766Z,3.77
2018-11-04T20:43:53.522Z,6.80
2018-11-04T20:46:24.436Z,7.75
2018-11-04T20:49:01.054Z,8.98
2018-11-04T20:51:32.414Z,11.12
2018-11-04T20:54:05.446Z,11.35
2018-11-04T20:56:41.180Z,11.05
2018-11-04T20:59:11.926Z,11.88
2018-11-04T21:01:43.025Z,10.53
2018-11-04T21:04:13.822Z,11.43
2018-11-04T21:06:44.722Z,11.70
2018-11-04T21:09:15.862Z,11.35
2018-11-04T21:11:46.610Z,12.65
2018-11-04T21:14:17.433Z,12.40
2018-11-04T21:16:48.354Z,12.55
2018-11-04T21:19:19.021Z,13.03
2018-11-04T21:21:49.893Z,13.03
2018-11-04T21:24:20.719Z,13.10
2018-11-04T21:26:51.462Z,13.20
2018-11-04T21:29:23.429Z,13.25
2018-11-04T21:31:53.897Z,12.37
2018-11-04T21:34:24.690Z,13.40
2018-11-04T21:36:55.465Z,10.98
2018-11-04T21:39:26.243Z,12.90
2018-11-04T21:41:57.046Z,12.85
2018-11-04T21:44:28.124Z,12.20
2018-11-04T21:46:59.063Z,10.28
2018-11-04T21:49:29.905Z,10.35
2018-11-04T21:52:00.785Z,12.23
2018-11-04T21:54:36.741Z,13.08
2018-11-04T21:57:08.663Z,12.68
2018-11-04T21:59:39.402Z,12.45
2018-11-04T22:02:10.242Z,13.05
2018-11-04T22:04:41.121Z,12.25
2018-11-04T22:07:12.397Z,12.33
2018-11-04T22:09:43.934Z,11.25
2018-11-04T22:12:15.724Z,11.45
2018-11-04T22:14:48.266Z,11.45
2018-11-04T22:17:19.041Z,11.10
2018-11-04T22:19:49.923Z,10.68
2018-11-04T22:22:20.785Z,10.95
2018-11-04T22:24:51.578Z,11.88
2018-11-04T22:27:22.361Z,11.60
2018-11-04T22:29:53.104Z,11.15
2018-11-04T22:32:24.106Z,10.18
2018-11-04T22:34:54.837Z,11.10
2018-11-04T22:37:25.577Z,10.38
2018-11-04T22:39:57.152Z,9.90
2018-11-04T22:42:28.012Z,9.40
2018-11-04T22:44:58.791Z,10.58
2018-11-04T22:47:29.529Z,10.05
2018-11-04T22:50:03.924Z,10.08
2018-11-04T22:55:13.886Z,10.30
2018-11-04T22:57:45.287Z,9.30
2018-11-04T23:00:21.904Z,9.83
2018-11-04T23:02:52.688Z,9.05
2018-11-04T23:05:27.241Z,9.40
2018-11-04T23:07:58.020Z,8.70
2018-11-04T23:10:28.804Z,8.38
2018-11-04T23:12:59.624Z,8.83
2018-11-04T23:15:30.837Z,8.18
2018-11-04T23:18:02.840Z,8.55
2018-11-04T23:20:33.526Z,8.78
2018-11-04T23:23:07.945Z,8.70
2018-11-04T23:25:38.629Z,8.75
2018-11-04T23:28:09.320Z,8.28
2018-11-04T23:30:40.091Z,7.80
2018-11-04T23:33:11.545Z,7.97
2018-11-04T23:35:42.286Z,8.75
2018-11-04T23:38:13.224Z,7.95
2018-11-04T23:40:44.354Z,7.60
2018-11-04T23:43:15.200Z,7.70
2018-11-04T23:45:46.552Z,7.70
2018-11-04T23:48:17.196Z,7.97
2018-11-04T23:50:48.871Z,7.87
2018-11-04T23:53:22.372Z,7.28
2018-11-04T23:55:53.072Z,8.50
2018-11-04T23:58:24.920Z,6.70
